Terminal Aerodrome Forecast
Issued by NWS Duluth, MN

Home | Current Version | Previous Version | Text Only | Print | Product List | Glossary On
Versions: 1 2 3 4 5 6 7 8 9 10 11 12 13 14 15 16 17 18 19 20 21 22 23 24 25 26 27
000
FTUS43 KDLH 162339
TAFDLH
TAF
KDLH 162339Z 1700/1724 12011KT P6SM BKN018
     FM170400 15006KT P6SM OVC012
     FM170700 VRB03KT 4SM BR OVC008
     FM171000 VRB03KT 1 1/2SM BR BKN008
     FM171600 23004KT P6SM BKN015
     FM172100 24008KT P6SM SCT025 BKN050=

USA.gov is the U.S. government's official web portal to all federal, state and local government web resources and services.